Time;durP1;ratioP1;P1;durP2;ratioP2;P2;SDS_P1;SDS_P2;PMS_P1;PMS_P2;Temp;Humidity;BMP_temperature;BMP_pressure;BME280_temperature;BME280_humidity;BME280_pressure;Samples;Min_cycle;Max_cycle;Signal;HPM_P1;HPM_P2
2021/05/06 00:02:33;;;;;;;0.10;0.10;;;;;;;;;;5087068;28;20262;-66
2021/05/06 00:08:08;;;;;;;0.20;0.20;;;;;;;;;;5061524;28;20279;-66
2021/05/06 00:32:33;;;;;;;0.10;0.10;;;;;;;;;;5082970;28;20216;-65
2021/05/06 00:34:59;;;;;;;0.20;0.20;;;;;;;;;;5086825;28;20282;-66
2021/05/06 00:37:25;;;;;;;0.10;0.10;;;;;;;;;;5086404;28;20233;-65
2021/05/06 00:39:55;;;;;;;0.20;0.20;;;;;;;;;;5083470;28;20217;-65
2021/05/06 00:42:32;;;;;;;0.20;0.20;;;;;;;;;;5077516;28;20203;-65
2021/05/06 00:45:41;;;;;;;0.20;0.20;;;;;;;;;;5086701;28;20431;-65
2021/05/06 01:07:17;;;;;;;0.20;0.20;;;;;;;;;;5083303;28;20201;-65
2021/05/06 01:09:47;;;;;;;0.20;0.20;;;;;;;;;;5085358;28;20198;-66
2021/05/06 01:12:13;;;;;;;0.20;0.20;;;;;;;;;;5093246;28;20224;-65
2021/05/06 01:14:39;;;;;;;0.20;0.20;;;;;;;;;;5086165;28;20220;-66
2021/05/06 01:17:05;;;;;;;0.17;0.17;;;;;;;;;;5085849;28;20232;-67
2021/05/06 01:19:31;;;;;;;0.20;0.20;;;;;;;;;;5085880;28;20480;-66
2021/05/06 01:21:57;;;;;;;0.20;0.20;;;;;;;;;;5085690;28;20458;-65
2021/05/06 01:24:24;;;;;;;0.20;0.20;;;;;;;;;;5085757;28;20386;-65
2021/05/06 01:26:56;;;;;;;0.20;0.20;;;;;;;;;;5086147;28;20268;-65
2021/05/06 01:29:25;;;;;;;0.20;0.20;;;;;;;;;;5085691;28;20214;-66
2021/05/06 01:31:56;;;;;;;0.20;0.20;;;;;;;;;;5085692;28;20260;-66
2021/05/06 01:34:23;;;;;;;0.10;0.10;;;;;;;;;;5072029;28;20212;-65
2021/05/06 01:36:52;;;;;;;0.10;0.10;;;;;;;;;;5085132;28;20260;-65
2021/05/06 01:39:54;;;;;;;0.10;0.10;;;;;;;;;;5085344;28;20224;-66
2021/05/06 01:42:20;;;;;;;0.10;0.10;;;;;;;;;;5085565;28;20205;-65
2021/05/06 01:47:30;;;;;;;0.20;0.20;;;;;;;;;;5076318;28;20195;-66
2021/05/06 01:50:09;;;;;;;0.10;0.10;;;;;;;;;;5085298;28;20233;-66
2021/05/06 01:58:15;;;;;;;0.10;0.10;;;;;;;;;;5084811;28;20296;-64
2021/05/06 02:00:44;;;;;;;0.17;0.17;;;;;;;;;;5077934;28;20568;-64
2021/05/06 02:03:10;;;;;;;0.13;0.13;;;;;;;;;;5084804;28;20238;-65
2021/05/06 02:05:36;;;;;;;0.10;0.10;;;;;;;;;;5078897;28;20239;-65
2021/05/06 02:08:02;;;;;;;0.10;0.10;;;;;;;;;;5084911;28;20274;-65
2021/05/06 02:10:29;;;;;;;0.20;0.20;;;;;;;;;;5084860;28;20223;-66
2021/05/06 02:12:55;;;;;;;0.10;0.10;;;;;;;;;;5084505;28;20220;-64
2021/05/06 02:15:23;;;;;;;0.20;0.20;;;;;;;;;;5084427;28;20209;-65
2021/05/06 02:17:49;;;;;;;0.17;0.17;;;;;;;;;;5071845;28;20226;-65
2021/05/06 02:20:16;;;;;;;0.10;0.10;;;;;;;;;;5084024;28;20206;-65
2021/05/06 02:22:42;;;;;;;0.20;0.20;;;;;;;;;;5082655;28;20489;-66
2021/05/06 02:25:08;;;;;;;0.13;0.13;;;;;;;;;;5084570;28;20243;-65
2021/05/06 02:27:35;;;;;;;0.10;0.10;;;;;;;;;;5084528;28;20198;-65
2021/05/06 02:30:01;;;;;;;0.10;0.10;;;;;;;;;;5084522;28;20208;-66
2021/05/06 02:32:28;;;;;;;0.10;0.10;;;;;;;;;;5084556;28;20295;-65
2021/05/06 02:34:53;;;;;;;0.10;0.10;;;;;;;;;;5084207;28;20217;-66
2021/05/06 02:37:19;;;;;;;0.20;0.20;;;;;;;;;;5084119;28;20229;-65
2021/05/06 02:39:45;;;;;;;0.10;0.10;;;;;;;;;;5084214;28;20208;-65
2021/05/06 02:42:11;;;;;;;0.20;0.20;;;;;;;;;;5084171;28;20203;-65
2021/05/06 02:44:38;;;;;;;0.20;0.20;;;;;;;;;;5084306;28;20205;-65
2021/05/06 02:47:04;;;;;;;0.10;0.10;;;;;;;;;;5090607;28;20419;-65
2021/05/06 02:49:30;;;;;;;0.10;0.10;;;;;;;;;;5090597;28;20203;-65
2021/05/06 02:52:01;;;;;;;0.10;0.10;;;;;;;;;;5083884;28;20273;-64
2021/05/06 02:54:30;;;;;;;0.10;0.10;;;;;;;;;;5083302;28;20208;-65
2021/05/06 02:57:00;;;;;;;0.10;0.10;;;;;;;;;;5083892;28;20263;-66
2021/05/06 03:05:03;;;;;;;0.17;0.17;;;;;;;;;;5063987;28;20393;-65
2021/05/06 03:07:31;;;;;;;0.20;0.20;;;;;;;;;;5078977;28;20405;-67
2021/05/06 03:10:03;;;;;;;0.10;0.10;;;;;;;;;;5083622;28;20231;-65
2021/05/06 03:12:41;;;;;;;0.13;0.13;;;;;;;;;;5081008;28;20205;-65
2021/05/06 03:23:21;;;;;;;0.10;0.10;;;;;;;;;;5083814;28;20198;-64
2021/05/06 03:25:46;;;;;;;0.10;0.10;;;;;;;;;;5083491;28;20203;-65
2021/05/06 03:28:14;;;;;;;0.20;0.20;;;;;;;;;;5083777;28;20248;-66
2021/05/06 03:31:11;;;;;;;0.20;0.20;;;;;;;;;;5083622;28;20205;-67
2021/05/06 03:41:55;;;;;;;0.20;0.20;;;;;;;;;;5083255;28;20204;-65
2021/05/06 03:44:49;;;;;;;0.10;0.10;;;;;;;;;;5083225;28;20284;-66
2021/05/06 03:47:43;;;;;;;0.10;0.10;;;;;;;;;;5083525;28;20217;-66
2021/05/06 04:15:29;;;;;;;0.20;0.20;;;;;;;;;;5073899;28;20185;-65
2021/05/06 04:18:01;;;;;;;0.10;0.10;;;;;;;;;;5081587;28;20418;-67
2021/05/06 04:26:04;;;;;;;0.10;0.10;;;;;;;;;;5077231;28;20222;-67
2021/05/06 04:35:27;;;;;;;0.10;0.10;;;;;;;;;;5082582;28;20225;-67
2021/05/06 04:36:56;;;;;;;0.20;0.20;;;;;;;;;;5079538;28;20235;-65
2021/05/06 04:39:37;;;;;;;0.10;0.10;;;;;;;;;;5082747;28;20203;-67
2021/05/06 04:42:32;;;;;;;0.10;0.10;;;;;;;;;;5082245;28;20442;-67
2021/05/06 04:45:33;;;;;;;0.10;0.10;;;;;;;;;;5085184;28;20265;-65
2021/05/06 04:53:45;;;;;;;0.20;0.20;;;;;;;;;;5086615;28;20261;-66
2021/05/06 04:56:31;;;;;;;0.20;0.20;;;;;;;;;;5086083;28;20199;-67
2021/05/06 04:59:18;;;;;;;0.20;0.20;;;;;;;;;;5077359;28;20272;-66
2021/05/06 05:04:30;;;;;;;0.20;0.20;;;;;;;;;;5085642;28;20422;-65
2021/05/06 05:07:04;;;;;;;0.20;0.20;;;;;;;;;;5085977;28;20202;-66
2021/05/06 05:09:49;;;;;;;0.20;0.20;;;;;;;;;;5086169;28;20269;-65
2021/05/06 05:12:25;;;;;;;0.10;0.10;;;;;;;;;;5086027;28;20223;-67
2021/05/06 05:15:06;;;;;;;0.20;0.20;;;;;;;;;;5075239;28;20200;-65
2021/05/06 05:17:42;;;;;;;0.20;0.20;;;;;;;;;;5085861;28;20371;-66
2021/05/06 05:20:12;;;;;;;0.20;0.20;;;;;;;;;;5086048;28;20235;-65
2021/05/06 05:25:28;;;;;;;0.20;0.20;;;;;;;;;;5085467;28;20216;-65
2021/05/06 05:27:56;;;;;;;0.20;0.20;;;;;;;;;;5085816;28;20196;-65
2021/05/06 05:30:24;;;;;;;0.10;0.10;;;;;;;;;;5085759;28;20213;-66
2021/05/06 05:32:49;;;;;;;0.17;0.17;;;;;;;;;;5085578;28;20228;-66
2021/05/06 05:35:22;;;;;;;0.10;0.10;;;;;;;;;;5085696;28;20509;-66
2021/05/06 05:37:52;;;;;;;0.10;0.10;;;;;;;;;;5085148;28;20225;-69
2021/05/06 05:40:22;;;;;;;0.10;0.10;;;;;;;;;;5085551;28;20202;-66
2021/05/06 05:42:59;;;;;;;0.20;0.20;;;;;;;;;;5085455;28;20206;-66
2021/05/06 05:45:58;;;;;;;0.10;0.10;;;;;;;;;;5085428;28;20270;-66
2021/05/06 05:56:35;;;;;;;0.10;0.10;;;;;;;;;;5084943;28;20237;-65
2021/05/06 05:59:01;;;;;;;0.10;0.10;;;;;;;;;;5085200;28;20205;-65
2021/05/06 06:01:28;;;;;;;0.20;0.20;;;;;;;;;;5084829;28;20205;-66
2021/05/06 06:03:53;;;;;;;0.20;0.20;;;;;;;;;;5084970;28;20209;-66
2021/05/06 06:06:20;;;;;;;0.10;0.10;;;;;;;;;;5085186;28;20198;-65
2021/05/06 06:08:46;;;;;;;0.10;0.10;;;;;;;;;;5084104;28;20201;-66
2021/05/06 06:11:12;;;;;;;0.10;0.10;;;;;;;;;;5088366;28;20256;-67
2021/05/06 06:13:37;;;;;;;0.20;0.20;;;;;;;;;;5084897;28;20196;-68
2021/05/06 06:16:10;;;;;;;0.10;0.10;;;;;;;;;;5092308;28;20206;-67
2021/05/06 06:18:41;;;;;;;0.10;0.10;;;;;;;;;;5086227;28;20214;-68
2021/05/06 06:21:11;;;;;;;0.20;0.20;;;;;;;;;;5084475;28;20233;-66
2021/05/06 06:23:37;;;;;;;0.10;0.10;;;;;;;;;;5084978;28;20213;-67
2021/05/06 06:26:03;;;;;;;0.20;0.20;;;;;;;;;;5082628;28;20372;-68
2021/05/06 06:28:38;;;;;;;0.10;0.10;;;;;;;;;;5088076;28;20205;-68
2021/05/06 06:31:04;;;;;;;0.10;0.10;;;;;;;;;;5086358;28;20454;-67
2021/05/06 06:33:30;;;;;;;0.10;0.10;;;;;;;;;;5086134;28;20202;-67
2021/05/06 06:35:57;;;;;;;0.10;0.10;;;;;;;;;;5084215;28;20238;-69
2021/05/06 06:38:22;;;;;;;0.10;0.10;;;;;;;;;;5083799;28;20229;-68
2021/05/06 06:40:48;;;;;;;0.10;0.10;;;;;;;;;;5083902;28;20249;-68
2021/05/06 06:43:14;;;;;;;0.17;0.17;;;;;;;;;;5086275;28;20205;-68
2021/05/06 06:45:40;;;;;;;0.10;0.10;;;;;;;;;;5085798;28;20380;-67
2021/05/06 06:48:06;;;;;;;0.20;0.20;;;;;;;;;;5085737;28;20478;-68
2021/05/06 06:50:32;;;;;;;0.10;0.10;;;;;;;;;;5083536;28;20276;-69
2021/05/06 06:52:58;;;;;;;0.10;0.10;;;;;;;;;;5083357;28;20206;-69
2021/05/06 06:55:24;;;;;;;0.10;0.10;;;;;;;;;;5086069;28;20431;-69
2021/05/06 06:57:50;;;;;;;0.17;0.17;;;;;;;;;;5083669;28;20455;-68
2021/05/06 07:00:17;;;;;;;0.10;0.10;;;;;;;;;;5084065;28;20206;-69
2021/05/06 07:02:42;;;;;;;0.10;0.10;;;;;;;;;;5081684;28;20449;-68
2021/05/06 07:05:09;;;;;;;0.10;0.10;;;;;;;;;;5075518;28;20308;-69
2021/05/06 07:07:35;;;;;;;0.10;0.10;;;;;;;;;;5085820;28;20372;-71
2021/05/06 07:10:01;;;;;;;0.20;0.20;;;;;;;;;;5083676;28;20219;-70
2021/05/06 07:12:27;;;;;;;0.10;0.10;;;;;;;;;;5085067;28;20313;-69
2021/05/06 07:14:53;;;;;;;0.10;0.10;;;;;;;;;;5083888;28;20203;-69
2021/05/06 07:17:19;;;;;;;0.10;0.10;;;;;;;;;;5090173;28;20235;-72
2021/05/06 07:19:45;;;;;;;0.10;0.10;;;;;;;;;;5078700;28;20457;-69
2021/05/06 07:22:10;;;;;;;0.10;0.10;;;;;;;;;;5083399;28;20199;-71
2021/05/06 07:24:36;;;;;;;0.10;0.10;;;;;;;;;;5083729;28;20206;-73
2021/05/06 07:27:03;;;;;;;0.10;0.10;;;;;;;;;;5083582;28;20302;-71
2021/05/06 07:29:29;;;;;;;0.10;0.10;;;;;;;;;;5083220;28;20521;-70
2021/05/06 07:31:55;;;;;;;0.10;0.10;;;;;;;;;;5080498;28;20230;-69
2021/05/06 07:34:21;;;;;;;0.10;0.10;;;;;;;;;;5083205;28;20238;-71
2021/05/06 07:36:47;;;;;;;0.10;0.10;;;;;;;;;;5082765;28;20211;-70
2021/05/06 07:39:12;;;;;;;0.10;0.10;;;;;;;;;;5083123;28;20314;-71
2021/05/06 07:41:38;;;;;;;0.10;0.10;;;;;;;;;;5083104;28;20207;-67
2021/05/06 07:44:06;;;;;;;0.10;0.10;;;;;;;;;;5086780;28;20218;-67
2021/05/06 07:46:32;;;;;;;0.10;0.10;;;;;;;;;;5084438;28;20489;-67
2021/05/06 07:48:58;;;;;;;0.10;0.10;;;;;;;;;;5083111;28;20216;-66
2021/05/06 07:51:24;;;;;;;0.10;0.10;;;;;;;;;;5091489;28;20210;-66
2021/05/06 07:53:51;;;;;;;0.10;0.10;;;;;;;;;;5083578;28;20589;-67
2021/05/06 07:56:17;;;;;;;0.10;0.10;;;;;;;;;;5082690;28;20235;-66
2021/05/06 07:58:43;;;;;;;0.10;0.10;;;;;;;;;;5087705;28;20223;-67
2021/05/06 08:01:10;;;;;;;0.10;0.10;;;;;;;;;;5082657;28;20296;-67
2021/05/06 08:03:37;;;;;;;0.10;0.10;;;;;;;;;;5083279;28;20215;-68
2021/05/06 08:06:03;;;;;;;0.10;0.10;;;;;;;;;;5083939;28;20207;-68
2021/05/06 08:08:29;;;;;;;0.10;0.10;;;;;;;;;;5083416;28;20477;-67
2021/05/06 08:10:56;;;;;;;0.10;0.10;;;;;;;;;;5084627;28;20202;-67
2021/05/06 08:13:23;;;;;;;0.10;0.10;;;;;;;;;;5083074;28;20201;-69
2021/05/06 08:15:49;;;;;;;0.10;0.10;;;;;;;;;;5083243;28;20450;-70
2021/05/06 08:18:16;;;;;;;0.10;0.10;;;;;;;;;;5085220;28;20336;-68
2021/05/06 08:20:42;;;;;;;0.10;0.10;;;;;;;;;;5086317;28;20494;-69
2021/05/06 08:23:09;;;;;;;0.10;0.10;;;;;;;;;;5088658;28;20220;-69
2021/05/06 08:25:36;;;;;;;0.10;0.10;;;;;;;;;;5086795;28;20201;-71
2021/05/06 08:28:02;;;;;;;0.10;0.10;;;;;;;;;;5086813;28;20199;-70
2021/05/06 08:30:28;;;;;;;0.10;0.10;;;;;;;;;;5086443;28;20392;-69
2021/05/06 08:32:54;;;;;;;0.10;0.10;;;;;;;;;;5086582;28;20223;-69
2021/05/06 08:35:21;;;;;;;0.10;0.10;;;;;;;;;;5090852;28;20249;-70
2021/05/06 08:37:47;;;;;;;0.10;0.10;;;;;;;;;;5086479;28;20239;-69
2021/05/06 08:40:13;;;;;;;0.10;0.10;;;;;;;;;;5086300;28;20205;-69
2021/05/06 08:42:40;;;;;;;0.10;0.10;;;;;;;;;;5086537;28;20395;-70
2021/05/06 08:45:06;;;;;;;0.10;0.10;;;;;;;;;;5083144;28;20520;-69
2021/05/06 08:47:32;;;;;;;0.10;0.10;;;;;;;;;;5090940;28;20258;-72
2021/05/06 08:49:59;;;;;;;0.10;0.10;;;;;;;;;;5089444;28;20211;-70
2021/05/06 08:52:27;;;;;;;0.10;0.10;;;;;;;;;;5094377;28;20200;-70
2021/05/06 08:54:53;;;;;;;0.10;0.10;;;;;;;;;;5086200;28;20272;-71
2021/05/06 08:57:20;;;;;;;0.10;0.10;;;;;;;;;;5093660;28;20227;-70
2021/05/06 08:59:46;;;;;;;0.10;0.10;;;;;;;;;;5081449;28;20204;-68
2021/05/06 09:02:13;;;;;;;0.10;0.10;;;;;;;;;;5089877;28;20290;-71
2021/05/06 09:04:39;;;;;;;0.10;0.10;;;;;;;;;;5081539;28;20513;-70
2021/05/06 09:07:05;;;;;;;0.10;0.10;;;;;;;;;;5081163;28;20210;-70
2021/05/06 09:09:33;;;;;;;0.10;0.10;;;;;;;;;;5085637;28;20196;-69
2021/05/06 09:11:59;;;;;;;0.10;0.10;;;;;;;;;;5079641;28;20276;-70
2021/05/06 09:14:35;;;;;;;0.10;0.10;;;;;;;;;;5084272;28;20201;-68
2021/05/06 09:17:02;;;;;;;0.10;0.10;;;;;;;;;;5091621;28;20246;-69
2021/05/06 09:19:27;;;;;;;0.10;0.10;;;;;;;;;;5085670;28;20206;-68
2021/05/06 09:21:55;;;;;;;0.10;0.10;;;;;;;;;;5085366;28;20210;-69
2021/05/06 09:24:23;;;;;;;0.10;0.10;;;;;;;;;;5085765;28;20389;-69
2021/05/06 09:26:52;;;;;;;0.10;0.10;;;;;;;;;;5087952;28;20200;-70
2021/05/06 09:29:28;;;;;;;0.10;0.10;;;;;;;;;;5085351;28;20540;-68
2021/05/06 09:32:07;;;;;;;0.10;0.10;;;;;;;;;;5085481;28;20296;-68
2021/05/06 09:34:35;;;;;;;0.10;0.10;;;;;;;;;;5083094;28;20307;-69
2021/05/06 09:37:02;;;;;;;0.10;0.10;;;;;;;;;;5087766;28;20218;-69
2021/05/06 09:39:28;;;;;;;0.10;0.10;;;;;;;;;;5085281;28;20213;-70
2021/05/06 09:42:05;;;;;;;0.10;0.10;;;;;;;;;;5085192;28;20240;-69
2021/05/06 09:44:49;;;;;;;0.10;0.10;;;;;;;;;;5091860;28;20218;-69
2021/05/06 09:47:15;;;;;;;0.10;0.10;;;;;;;;;;5083961;28;20223;-69
2021/05/06 09:49:41;;;;;;;0.10;0.10;;;;;;;;;;5088052;28;20415;-68
2021/05/06 09:52:07;;;;;;;0.20;0.20;;;;;;;;;;5083676;28;20209;-69
2021/05/06 09:54:33;;;;;;;0.10;0.10;;;;;;;;;;5079819;28;20543;-69
2021/05/06 09:57:00;;;;;;;0.10;0.10;;;;;;;;;;5085064;28;20301;-69
2021/05/06 09:59:27;;;;;;;0.10;0.10;;;;;;;;;;5089050;28;20214;-69
2021/05/06 10:01:54;;;;;;;0.10;0.10;;;;;;;;;;5076939;28;20301;-69
2021/05/06 10:04:20;;;;;;;0.10;0.10;;;;;;;;;;5085003;28;20546;-69
2021/05/06 10:07:01;;;;;;;0.10;0.10;;;;;;;;;;5085190;28;20444;-69
2021/05/06 10:09:27;;;;;;;0.10;0.10;;;;;;;;;;5093696;28;20229;-69
2021/05/06 10:11:53;;;;;;;0.10;0.10;;;;;;;;;;5074497;28;20203;-69
2021/05/06 10:14:18;;;;;;;0.10;0.10;;;;;;;;;;5091687;28;20205;-69
2021/05/06 10:16:45;;;;;;;0.10;0.10;;;;;;;;;;5081348;28;20210;-68
2021/05/06 10:19:11;;;;;;;0.10;0.10;;;;;;;;;;5077039;28;20299;-69
2021/05/06 10:21:37;;;;;;;0.10;0.10;;;;;;;;;;5086013;28;20204;-69
2021/05/06 10:24:03;;;;;;;0.10;0.10;;;;;;;;;;5084298;28;20246;-68
2021/05/06 10:26:29;;;;;;;0.10;0.10;;;;;;;;;;5074111;28;20224;-68
2021/05/06 10:28:55;;;;;;;0.10;0.10;;;;;;;;;;5069224;28;20229;-70
2021/05/06 10:31:22;;;;;;;0.10;0.10;;;;;;;;;;5087869;28;20231;-69
2021/05/06 10:33:50;;;;;;;0.10;0.10;;;;;;;;;;5079050;28;20205;-69
2021/05/06 10:36:17;;;;;;;0.10;0.10;;;;;;;;;;5077159;28;20258;-68
2021/05/06 10:38:44;;;;;;;0.10;0.10;;;;;;;;;;5079801;28;20227;-69
2021/05/06 10:41:26;;;;;;;0.10;0.10;;;;;;;;;;5084420;28;20238;-68
2021/05/06 10:43:52;;;;;;;0.10;0.10;;;;;;;;;;5072043;28;20270;-69
2021/05/06 10:46:17;;;;;;;0.10;0.10;;;;;;;;;;5083960;28;20239;-68
2021/05/06 10:48:57;;;;;;;0.10;0.10;;;;;;;;;;5083568;28;20204;-69
2021/05/06 10:51:38;;;;;;;0.10;0.10;;;;;;;;;;5083926;28;20214;-71
2021/05/06 10:54:19;;;;;;;0.10;0.10;;;;;;;;;;5071805;28;20563;-70
2021/05/06 10:56:45;;;;;;;0.10;0.10;;;;;;;;;;5084565;28;20214;-69
2021/05/06 10:59:20;;;;;;;0.10;0.10;;;;;;;;;;5092047;28;20293;-70
2021/05/06 11:01:46;;;;;;;1.23;1.23;;;;;;;;;;5079723;28;20208;-69
2021/05/06 11:04:13;;;;;;;0.10;0.10;;;;;;;;;;5083397;28;20206;-69
2021/05/06 11:06:40;;;;;;;0.10;0.10;;;;;;;;;;5086212;28;20221;-69
2021/05/06 11:09:39;;;;;;;0.10;0.10;;;;;;;;;;5081793;28;20195;-68
2021/05/06 11:12:34;;;;;;;0.10;0.10;;;;;;;;;;5082718;28;20210;-68
2021/05/06 11:15:28;;;;;;;0.10;0.10;;;;;;;;;;5079035;28;20218;-68
2021/05/06 11:17:54;;;;;;;0.10;0.10;;;;;;;;;;5083914;28;20226;-67
2021/05/06 11:20:55;;;;;;;0.10;0.10;;;;;;;;;;5087805;28;20200;-69
2021/05/06 11:23:27;;;;;;;0.10;0.10;;;;;;;;;;5077653;28;20203;-69
2021/05/06 11:26:00;;;;;;;0.10;0.10;;;;;;;;;;5083837;28;20273;-69
2021/05/06 11:28:40;;;;;;;0.20;0.20;;;;;;;;;;5075926;28;20361;-68
2021/05/06 11:31:05;;;;;;;0.10;0.10;;;;;;;;;;5076552;28;20214;-68
2021/05/06 11:33:31;;;;;;;0.10;0.10;;;;;;;;;;5079006;28;20229;-68
2021/05/06 11:35:58;;;;;;;0.10;0.10;;;;;;;;;;5083131;28;20222;-69
2021/05/06 11:38:29;;;;;;;0.10;0.10;;;;;;;;;;5083001;28;20225;-69
2021/05/06 11:40:58;;;;;;;0.10;0.10;;;;;;;;;;5083668;28;20413;-70
2021/05/06 11:43:24;;;;;;;0.10;0.10;;;;;;;;;;5077278;28;20269;-70
2021/05/06 11:46:02;;;;;;;0.10;0.10;;;;;;;;;;5083522;28;20203;-69
2021/05/06 11:48:33;;;;;;;0.10;0.10;;;;;;;;;;5083510;28;20206;-69
2021/05/06 11:50:58;;;;;;;0.10;0.10;;;;;;;;;;5083646;28;20209;-70
2021/05/06 11:53:24;;;;;;;0.10;0.10;;;;;;;;;;5085043;28;20204;-70
2021/05/06 11:55:50;;;;;;;0.10;0.10;;;;;;;;;;5087762;28;20379;-71
2021/05/06 11:58:23;;;;;;;0.10;0.10;;;;;;;;;;5080925;28;20230;-69
2021/05/06 12:00:51;;;;;;;0.10;0.10;;;;;;;;;;5087611;28;20206;-70
2021/05/06 12:03:17;;;;;;;0.05;0.05;;;;;;;;;;5087250;28;20540;-70
2021/05/06 12:06:01;;;;;;;0.00;0.00;;;;;;;;;;5087448;28;20201;-70
2021/05/06 12:08:29;;;;;;;0.10;0.10;;;;;;;;;;5079451;28;20196;-73
2021/05/06 12:10:56;;;;;;;0.10;0.10;;;;;;;;;;5089938;28;20278;-71
2021/05/06 12:13:26;;;;;;;0.10;0.10;;;;;;;;;;5087602;28;20243;-70
2021/05/06 12:15:52;;;;;;;0.10;0.10;;;;;;;;;;5087195;28;20213;-70
2021/05/06 12:18:19;;;;;;;0.00;0.00;;;;;;;;;;5085314;28;20247;-69
2021/05/06 12:20:49;;;;;;;0.00;0.00;;;;;;;;;;5086584;28;20398;-70
2021/05/06 12:23:15;;;;;;;0.10;0.10;;;;;;;;;;5089551;28;20243;-70
2021/05/06 12:25:41;;;;;;;0.10;0.10;;;;;;;;;;5090378;28;20365;-70
2021/05/06 12:28:07;;;;;;;0.10;0.10;;;;;;;;;;5088655;28;20247;-69
2021/05/06 12:30:34;;;;;;;0.10;0.10;;;;;;;;;;5093171;28;20217;-69
2021/05/06 12:33:00;;;;;;;0.10;0.10;;;;;;;;;;5086715;28;20223;-68
2021/05/06 12:35:27;;;;;;;0.10;0.10;;;;;;;;;;5086121;28;20202;-68
2021/05/06 12:37:53;;;;;;;0.10;0.10;;;;;;;;;;5088032;28;20252;-69
2021/05/06 12:40:20;;;;;;;0.10;0.10;;;;;;;;;;5086341;28;20243;-71
2021/05/06 12:42:46;;;;;;;0.10;0.10;;;;;;;;;;5086825;28;20215;-69
2021/05/06 12:45:24;;;;;;;0.10;0.10;;;;;;;;;;5087044;28;20201;-68
2021/05/06 12:47:51;;;;;;;0.10;0.10;;;;;;;;;;5086271;28;20223;-68
2021/05/06 12:50:19;;;;;;;0.10;0.10;;;;;;;;;;5087129;28;20205;-68
2021/05/06 12:52:47;;;;;;;0.10;0.10;;;;;;;;;;5086737;28;20281;-69
2021/05/06 12:55:18;;;;;;;0.10;0.10;;;;;;;;;;5080325;28;20210;-69
2021/05/06 12:57:44;;;;;;;0.10;0.10;;;;;;;;;;5086441;28;20276;-70
2021/05/06 13:00:18;;;;;;;0.10;0.10;;;;;;;;;;5085887;28;20209;-68
2021/05/06 13:02:44;;;;;;;0.10;0.10;;;;;;;;;;5086797;28;20213;-69
2021/05/06 13:05:13;;;;;;;0.10;0.10;;;;;;;;;;5085143;28;20318;-69
2021/05/06 13:07:49;;;;;;;0.10;0.10;;;;;;;;;;5084680;28;20205;-69
2021/05/06 13:10:26;;;;;;;0.10;0.10;;;;;;;;;;5081700;28;20204;-68
2021/05/06 13:12:52;;;;;;;0.10;0.10;;;;;;;;;;5088353;28;20196;-69
2021/05/06 13:15:18;;;;;;;0.10;0.10;;;;;;;;;;5100549;28;20394;-70
2021/05/06 13:17:44;;;;;;;0.10;0.10;;;;;;;;;;5094267;28;20294;-69
2021/05/06 13:20:18;;;;;;;0.10;0.10;;;;;;;;;;5084049;28;20204;-70
2021/05/06 13:23:00;;;;;;;0.10;0.10;;;;;;;;;;5085805;28;20269;-69
2021/05/06 13:25:39;;;;;;;0.10;0.10;;;;;;;;;;5081547;28;20227;-70
2021/05/06 13:28:05;;;;;;;0.10;0.10;;;;;;;;;;5088263;28;20374;-69
2021/05/06 13:30:31;;;;;;;0.10;0.10;;;;;;;;;;5085706;28;20275;-69
2021/05/06 13:33:07;;;;;;;0.10;0.10;;;;;;;;;;5082986;28;20250;-67
2021/05/06 13:35:34;;;;;;;0.10;0.10;;;;;;;;;;5087112;28;20486;-67
2021/05/06 13:38:00;;;;;;;0.10;0.10;;;;;;;;;;5093928;28;20257;-68
2021/05/06 13:40:27;;;;;;;0.10;0.10;;;;;;;;;;5090013;28;20215;-67
2021/05/06 13:42:53;;;;;;;0.10;0.10;;;;;;;;;;5088612;28;20203;-68
2021/05/06 13:45:19;;;;;;;0.10;0.10;;;;;;;;;;5084640;28;20419;-66
2021/05/06 13:47:48;;;;;;;0.10;0.10;;;;;;;;;;5082538;28;20238;-66
2021/05/06 13:50:15;;;;;;;0.10;0.10;;;;;;;;;;5084430;28;20248;-66
2021/05/06 13:52:41;;;;;;;0.10;0.10;;;;;;;;;;5085073;28;20380;-69
2021/05/06 13:55:08;;;;;;;0.10;0.10;;;;;;;;;;5085245;28;20400;-67
2021/05/06 13:57:34;;;;;;;0.10;0.10;;;;;;;;;;5089887;28;20298;-68
2021/05/06 14:00:00;;;;;;;0.10;0.10;;;;;;;;;;5082625;28;20204;-65
2021/05/06 14:02:27;;;;;;;0.10;0.10;;;;;;;;;;5086574;28;20235;-66
2021/05/06 14:04:53;;;;;;;0.10;0.10;;;;;;;;;;5084711;28;20210;-66
2021/05/06 14:07:19;;;;;;;0.10;0.10;;;;;;;;;;5085513;28;20527;-66
2021/05/06 14:09:46;;;;;;;0.10;0.10;;;;;;;;;;5092914;28;20206;-69
2021/05/06 14:12:12;;;;;;;0.20;0.20;;;;;;;;;;5084923;28;20260;-69
2021/05/06 14:14:38;;;;;;;0.10;0.10;;;;;;;;;;5083228;28;20396;-69
2021/05/06 14:17:04;;;;;;;0.10;0.10;;;;;;;;;;5082967;28;20451;-69
2021/05/06 14:19:31;;;;;;;0.10;0.10;;;;;;;;;;5084011;28;20233;-69
2021/05/06 14:21:56;;;;;;;0.10;0.10;;;;;;;;;;5080958;28;20245;-69
2021/05/06 14:24:22;;;;;;;0.10;0.10;;;;;;;;;;5089529;28;20206;-71
2021/05/06 14:26:50;;;;;;;0.10;0.10;;;;;;;;;;5085509;28;20206;-68
2021/05/06 14:29:16;;;;;;;0.20;0.20;;;;;;;;;;5080205;28;20232;-71
2021/05/06 14:31:42;;;;;;;0.10;0.10;;;;;;;;;;5083296;28;20297;-70
2021/05/06 14:34:09;;;;;;;0.10;0.10;;;;;;;;;;5084120;28;20231;-69
2021/05/06 14:36:35;;;;;;;0.10;0.10;;;;;;;;;;5084141;28;20436;-69
2021/05/06 14:39:02;;;;;;;0.10;0.10;;;;;;;;;;5084134;28;20537;-69
2021/05/06 14:41:28;;;;;;;0.10;0.10;;;;;;;;;;5084172;28;20392;-71
2021/05/06 14:43:55;;;;;;;0.10;0.10;;;;;;;;;;5084079;28;20269;-69
2021/05/06 14:46:21;;;;;;;0.10;0.10;;;;;;;;;;5083664;28;20209;-69
2021/05/06 14:48:48;;;;;;;0.10;0.10;;;;;;;;;;5081686;28;20205;-70
2021/05/06 14:51:14;;;;;;;0.10;0.10;;;;;;;;;;5083865;28;20205;-69
2021/05/06 14:53:40;;;;;;;0.63;0.63;;;;;;;;;;5086377;28;20207;-70
2021/05/06 14:56:06;;;;;;;0.10;0.10;;;;;;;;;;5091088;28;20203;-70
2021/05/06 14:58:33;;;;;;;0.10;0.10;;;;;;;;;;5090162;28;20550;-70
2021/05/06 15:01:00;;;;;;;0.30;0.30;;;;;;;;;;5086011;28;20206;-71
2021/05/06 15:18:52;;;;;;;0.10;0.10;;;;;;;;;;5121417;27;20220;-67
2021/05/06 15:21:18;;;;;;;0.10;0.10;;;;;;;;;;5124196;28;20550;-68
2021/05/06 15:23:44;;;;;;;0.10;0.10;;;;;;;;;;5124166;28;20199;-68
2021/05/06 15:26:10;;;;;;;0.10;0.10;;;;;;;;;;5123743;28;20493;-66
2021/05/06 15:28:36;;;;;;;0.10;0.10;;;;;;;;;;5130173;27;20423;-68
2021/05/06 15:31:02;;;;;;;0.10;0.10;;;;;;;;;;5126883;27;20206;-67
2021/05/06 15:33:28;;;;;;;0.10;0.10;;;;;;;;;;5123813;28;20194;-68
2021/05/06 15:35:55;;;;;;;0.10;0.10;;;;;;;;;;5122903;28;20265;-67
2021/05/06 15:38:21;;;;;;;0.10;0.10;;;;;;;;;;5118097;28;20276;-68
2021/05/06 15:40:48;;;;;;;0.10;0.10;;;;;;;;;;5124037;28;20204;-67
2021/05/06 15:43:14;;;;;;;0.10;0.10;;;;;;;;;;5123998;28;20201;-66
2021/05/06 15:45:42;;;;;;;0.10;0.10;;;;;;;;;;5123640;28;20202;-70
2021/05/06 15:48:08;;;;;;;0.10;0.10;;;;;;;;;;5123826;28;20555;-67
2021/05/06 15:50:35;;;;;;;0.10;0.10;;;;;;;;;;5124670;28;21309;-68
2021/05/06 15:53:01;;;;;;;0.10;0.10;;;;;;;;;;5124852;28;20208;-68
2021/05/06 15:55:29;;;;;;;0.10;0.10;;;;;;;;;;5121040;28;20421;-68
2021/05/06 15:57:55;;;;;;;0.10;0.10;;;;;;;;;;5118049;28;20237;-67
2021/05/06 16:00:24;;;;;;;0.10;0.10;;;;;;;;;;5123628;28;20464;-70
2021/05/06 16:02:50;;;;;;;0.10;0.10;;;;;;;;;;5123803;28;20209;-67
2021/05/06 16:05:23;;;;;;;0.10;0.10;;;;;;;;;;5122765;28;20272;-68
2021/05/06 16:07:49;;;;;;;0.10;0.10;;;;;;;;;;5127220;28;20198;-68
2021/05/06 16:10:16;;;;;;;0.10;0.10;;;;;;;;;;5116682;28;20270;-71
2021/05/06 16:12:43;;;;;;;0.10;0.10;;;;;;;;;;5129589;28;20568;-68
2021/05/06 16:15:09;;;;;;;0.10;0.10;;;;;;;;;;5123417;28;20435;-69
2021/05/06 16:17:35;;;;;;;0.10;0.10;;;;;;;;;;5117090;28;20204;-68
2021/05/06 16:20:03;;;;;;;0.10;0.10;;;;;;;;;;5123380;28;20240;-68
2021/05/06 16:22:29;;;;;;;0.10;0.10;;;;;;;;;;5117234;28;20197;-68
2021/05/06 16:24:55;;;;;;;0.10;0.10;;;;;;;;;;5118117;28;20215;-69
2021/05/06 16:27:22;;;;;;;0.10;0.10;;;;;;;;;;5123323;28;20501;-69
2021/05/06 16:29:48;;;;;;;0.10;0.10;;;;;;;;;;5123024;28;20202;-68
2021/05/06 16:32:14;;;;;;;0.10;0.10;;;;;;;;;;5119658;28;20246;-67
2021/05/06 16:34:42;;;;;;;0.10;0.10;;;;;;;;;;5123271;28;20205;-69
2021/05/06 16:37:12;;;;;;;0.10;0.10;;;;;;;;;;5123074;28;20252;-68
2021/05/06 16:39:46;;;;;;;0.10;0.10;;;;;;;;;;5117924;28;20310;-68
2021/05/06 16:42:30;;;;;;;0.10;0.10;;;;;;;;;;5125055;28;20269;-67
2021/05/06 16:44:57;;;;;;;0.10;0.10;;;;;;;;;;5119313;27;20487;-67
2021/05/06 16:47:23;;;;;;;0.10;0.10;;;;;;;;;;5129287;27;20202;-68
2021/05/06 16:49:49;;;;;;;0.10;0.10;;;;;;;;;;5126107;27;20250;-69
2021/05/06 16:52:16;;;;;;;0.10;0.10;;;;;;;;;;5125584;28;20655;-69
2021/05/06 16:54:42;;;;;;;0.17;0.17;;;;;;;;;;5127866;27;20309;-68
2021/05/06 16:57:08;;;;;;;0.10;0.10;;;;;;;;;;5122366;27;20204;-67
2021/05/06 16:59:33;;;;;;;0.10;0.10;;;;;;;;;;5124713;27;20508;-68
2021/05/06 17:02:00;;;;;;;0.10;0.10;;;;;;;;;;5128628;27;20231;-68
2021/05/06 17:04:26;;;;;;;0.10;0.10;;;;;;;;;;5130626;27;20201;-67
2021/05/06 17:06:55;;;;;;;0.10;0.10;;;;;;;;;;5127552;27;20332;-69
2021/05/06 17:09:21;;;;;;;0.10;0.10;;;;;;;;;;5125457;27;20210;-68
2021/05/06 17:11:47;;;;;;;0.10;0.10;;;;;;;;;;5132459;27;20213;-69
2021/05/06 17:14:13;;;;;;;0.10;0.10;;;;;;;;;;5127615;27;20207;-68
2021/05/06 17:16:38;;;;;;;0.10;0.10;;;;;;;;;;5128032;27;20195;-69
2021/05/06 17:19:05;;;;;;;0.10;0.10;;;;;;;;;;5128349;27;20251;-69
2021/05/06 17:21:31;;;;;;;0.10;0.10;;;;;;;;;;5128932;27;20213;-68